Tiempo atmosférico en la estación meteorológica de Calatayud, Zaragoza (600 m.)



Fecha
DESCASC
Temp. máxima en grados centígrados (hora)
DESCASC
Temp. mínima en grados centígrados (hora)
DESCASC
Temp. media en grados centígrados
DESCASC
Racha de viento máxima en m/sg (hora)
DESCASC
Velocidad máxima media en intervalos de 10 minutos(hora)
DESCASC
Precipitaciones diarias en mm
DESCASC
Precipitaciones de 00:00 a 06:00 en mm
DESCASC
Precipitaciones de 06:00 a 12:00 en mm
DESCASC
Precipitaciones de 12:00 a 18:00 en mm
DESCASC
Precipitaciones de 18:00 a 24:00 en mm
DESCASC
22-04-2019 17.7 (18:40) 6 (07:50) 11.9 4.72 (23:00) 2.78 (22:40) 0 0 0 0 0
21-04-2019 11.8 (16:50) 7.8 (03:30) 9.8 6.39 (08:20) 4.17 (08:30) 4.2 2 0 0 2.2
20-04-2019 19.2 (14:40) 10.5 (05:40) 14.9 11.39 (14:00) 7.22 (14:10) 0 0 0 0 0
19-04-2019 17 (16:10) 8.8 (02:10) 12.9 16.94 (17:20) 10.28 (17:40) 14.6 10.4 4.2 0 0
18-04-2019 16.5 (15:50) 9.1 (00:00) 12.8 10.83 (19:10) 6.11 (11:10) 16.4 0 1.2 0.2 15
17-04-2019 23.3 (18:00) 10.1 (00:00) 16.7 11.67 (16:30) 7.5 (16:00) 0 0 0 0 0
16-04-2019 22.2 (17:30) 9.7 (00:00) 16 9.44 (19:00) 6.11 (18:50) 0 0 0 0 0
15-04-2019 25.7 (18:40) 8.2 (00:00) 17 10.56 (18:40) 7.5 (20:40) 0 0 0 0 0
14-04-2019 24.6 (17:30) 4.4 (00:00) 14.5 11.39 (14:40) 6.67 (14:30) 0 0 0 0 0
13-04-2019 23 (18:40) 0.2 (00:00) 11.6 5.83 (19:20) 3.06 (19:20) 0 0 0 0 0
12-04-2019 18.7 (18:00) 1.2 (07:50) 10 7.78 (20:10) 5 (19:40) 0 0 0 0 0
11-04-2019 16 (16:40) 1.5 (00:00) 8.8 12.5 (18:50) 7.78 (18:50) 0 0 0 0 0
10-04-2019 12 (17:30) 4.7 (00:00) 8.3 9.72 (12:30) 5.83 (13:10) 1.6 0 0 1.6 0
09-04-2019 15 (16:30) 5.3 (00:00) 10.2 16.11 (17:20) 8.33 (17:20) 5 0.4 0 3.4 1.2
08-04-2019 16.7 (15:50) 6.9 (00:00) 11.8 12.5 (18:00) 7.78 (18:00) 1 0.2 0.6 0.2 0
07-04-2019 13.8 (17:30) 4 (00:00) 8.9 13.33 (10:50) 8.61 (10:50) 1 1 0 0 0
06-04-2019 12.4 (15:40) 2.7 (00:00) 7.5 13.89 (18:30) 7.78 (14:10) 3.6 0 0 0.4 3.2
05-04-2019 10.8 (13:10) 3 (00:00) 6.9 11.39 (21:10) 6.94 (21:10) 4.6 0 0 1.2 3.4
04-04-2019 14.9 (18:10) -1.4 (-00:0) 6.7 8.61 (15:20) 4.72 (15:40) 0 0 0 0 0
03-04-2019 9.9 (12:30) 4.2 (23:59) 7 10 (18:10) 6.39 (19:30) 0.4 0.2 0.2 0 0
02-04-2019 18.1 (15:20) 7.9 (00:00) 13 10 (15:50) 6.39 (16:20) 4.6 0 0 2.4 2.2
01-04-2019 14.9 (14:50) 6.8 (00:00) 10.8 5.83 (15:40) 3.89 (15:40) 4.6 1 0 1.4 2.2
31-03-2019 11.5 (13:30) 3.3 (00:00) 7.4 7.22 (15:00) 4.72 (14:50) 5.6 0 0 1.2 4.4
30-03-2019 18.8 (15:00) 1.8 (00:00) 10.3 9.72 (17:00) 6.39 (17:10) 0 0 0 0 0
29-03-2019 21.1 (14:30) 0.9 (00:00) 11 15.83 (16:40) 6.67 (18:50) 0 0 0 0 0
28-03-2019 19 (17:00) -0.7 (-00:0) 9.2 8.61 (18:30) 5.56 (18:10) 0 0 0 0 0
27-03-2019 19.4 (16:00) -1.4 (-00:0) 9 8.61 (19:10) 5.28 (19:10) 0 0 0 0 0
26-03-2019 19.2 (16:50) -0.8 (-00:0) 9.2 8.33 (16:30) 5 (16:00) 0 0 0 0 0
25-03-2019 19 (15:40) 1.9 (00:00) 10.4 10.28 (17:50) 6.94 (17:50) 0 0 0 0 0

Gráficas

Temp. máximas Temp. mínimas Temp. medias Precipitaciones Rachas de viento máximas Velocidades máximas media en intervalos de 10 minutos

Datos horarios

Fecha y hora oficial Temperatura (ºC) Velocidad del viento (km/h) Dirección del viento Racha (km/h) Dirección de racha Precipitación (mm) Presión (hPa) Tendencia (hPa) Humedad (%)
2019-04-23 23:00:00 8.2 13 Sudoeste 24 Sudoeste 0 933.5 3.6 64
2019-04-23 22:00:00 9 5 Oeste 40 Sudoeste 0 932.3 2.5 59
2019-04-23 21:00:00 9.4 25 Sudoeste 57 Sudoeste 0 931 1.6 55
2019-04-23 20:00:00 12.6 20 Sudoeste 45 Sudoeste 0 929.9 1.1 44
2019-04-23 19:00:00 11.6 23 Sudoeste 52 Oeste 0 929.8 0.1 54
2019-04-23 18:00:00 12.5 33 Oeste 50 Oeste 0 929.4 -0.5 57
2019-04-23 17:00:00 14.6 20 Sur 37 Sur 0 928.8 -1.2 45
2019-04-23 16:00:00 14 13 Sudoeste 36 Sudoeste 0 929.7 0.1 49
2019-04-23 15:00:00 14.2 19 Sudoeste 39 Sudoeste 0 929.9 0.1 47
2019-04-23 14:00:00 14.4 16 Sudoeste 36 Sudoeste 0 930 0.5 53
2019-04-23 13:00:00 15 12 Sur 28 Sur 0 929.6 0 51
2019-04-23 12:00:00 13.9 10 Sudoeste 24 Sur 0 929.8 0.1 61
2019-04-23 11:00:00 12.7 4 Oeste 8 Norte 0 929.5 0 73
2019-04-23 10:00:00 10.6 3 Oeste 9 Sudeste 0 929.6 0.2 82
2019-04-23 09:00:00 8.8 4 Sudoeste 7 Sudoeste 0 929.7 0.4 85
2019-04-23 08:00:00 8 3 Oeste 7 Oeste 0 929.5 0 86
2019-04-23 07:00:00 8.7 3 Sur 5 Norte 0 929.4 -0.4 84
2019-04-23 06:00:00 9.4 4 Sur 5 Nordeste 0 929.3 -1.2 82
2019-04-23 05:00:00 10 4 Nordeste 9 Nordeste 0 929.5 -1.5 80
2019-04-23 04:00:00 10.8 4 Norte 9 Nordeste 0 929.8 -1.5 78
2019-04-23 03:00:00 11.8 3 Este 10 Norte 0 930.5 -1.3 68
2019-04-23 02:00:00 12.5 5 Sudoeste 14 Oeste 0 931 -1 69
2019-04-23 01:00:00 13.2 4 Sur 11 Sur 0 931.3 -0.7 68
2019-04-23 00:00:00 13.5 3 Sudeste 15 Sudeste 0 931.8 0 66
2019-04-22 23:00:00 14 10 Sudeste 17 Sudeste 0 932 0.3 62
2019-04-22 22:00:00 14.4 10 Sudeste 16 Sudeste 0 932 0.2 61
2019-04-22 21:00:00 15.5 3 Este 12 Este 0 931.8 -0.4 60
2019-04-22 20:00:00 16.9 2 Sur 10 Este 0 931.7 -1.3 49
2019-04-22 19:00:00 17.3 3 Sur 13 Sur 0 931.8 -2.1 46
2019-04-22 18:00:00 17.3 4 Nordeste 12 Sur 0 932.2 -2.3 49
2019-04-22 17:00:00 16.1 5 Noroeste 10 Oeste 0 933 -2.1 49
2019-04-22 16:00:00 14.4 3 Sur 10 Sur 0 933.9 -1.8 56
2019-04-22 15:00:00 13.9 5 Oeste 11 Sudoeste 0 934.5 -1.9 57
2019-04-22 14:00:00 13.4 6 Sudoeste 17 Oeste 0 935.1 -1.6 59
2019-04-22 13:00:00 14.3 4 Nordeste 9 Nordeste 0 935.7 -1.3 62
2019-04-22 12:00:00 12.6 3 Noroeste 7 Oeste 0 936.4 -0.6 73
2019-04-22 11:00:00 9.5 2 Oeste 6 Oeste 0 936.7 -0.2 92
2019-04-22 10:00:00 7.7 2 Norte 5 Nordeste 0 937 0.1 92
2019-04-22 09:00:00 6.3 2 Sudoeste 5 Noroeste 0 937 -0.3 92
2019-04-22 08:00:00 6.1 2 Oeste 5 Nordeste 0 936.9 -1.3 92
2019-04-22 07:00:00 6.6 2 Norte 6 Nordeste 0 936.9 -2.1 91
2019-04-22 06:00:00 6.6 4 Nordeste 8 Sur 0 937.3 -2.6 91
2019-04-22 05:00:00 7.3 5 Sudeste 8 Sur 0 938.2 -2.6 90
2019-04-22 04:00:00 8.1 3 Sur 7 Sur 0 939 -2.5 89
2019-04-22 03:00:00 8.5 6 Sur 9 Sur 0 939.9 -2.1 88
2019-04-22 02:00:00 8.9 5 Sur 8 Sur 0 940.8 -1.7 87
2019-04-22 01:00:00 8.9 4 Sur 8 Sudoeste 0 941.5 -1 89
2019-04-22 00:00:00 9 3 Sudoeste 5 Sudoeste 0 942 -0.3 89
2019-04-21 23:00:00 9.1 4 Sudoeste 9 Sudoeste 0.2 942.5 0.1 88
2019-04-21 22:00:00 9.1 5 Oeste 9 Oeste 0 942.5 0 88
2019-04-21 21:00:00 9.4 5 Sudoeste 8 Nordeste 0.6 942.3 -0.7 86
2019-04-21 20:00:00 10 5 Este 21 Nordeste 1.4 942.4 -1.1 81
2019-04-21 19:00:00 11.3 11 Este 22 Nordeste 0 942.5 -1.6 64
2019-04-21 18:00:00 11.2 10 Este 20 Nordeste 0 943 -1.7 68
2019-04-21 17:00:00 11.7 6 Nordeste 13 Norte 0 943.5 -1.8 66
2019-04-21 16:00:00 11.1 11 Nordeste 17 Nordeste 0 944.1 -1.6 68
2019-04-21 15:00:00 10.2 5 Nordeste 16 Nordeste 0 944.7 -1.4 77
2019-04-21 14:00:00 9.8 10 Nordeste 17 Nordeste 0 945.3 -1 79
2019-04-21 13:00:00 9.8 11 Nordeste 22 Nordeste 0 945.7 -0.8 76
2019-04-21 12:00:00 9.5 14 Nordeste 21 Nordeste 0 946.1 -0.6 77
2019-04-21 11:00:00 9.3 8 Nordeste 21 Nordeste 0 946.3 -0.6 81
2019-04-21 10:00:00 8.9 10 Nordeste 21 Nordeste 0 946.5 -0.6 82
2019-04-21 09:00:00 8.3 12 Nordeste 23 Nordeste 0 946.7 -0.8 85
2019-04-21 08:00:00 8.1 12 Nordeste 19 Nordeste 0 946.9 -1.6 87
2019-04-21 07:00:00 7.9 8 Nordeste 17 Nordeste 0 947.1 -2 88
2019-04-21 06:00:00 8 8 Norte 15 Nordeste 0 947.5 -2.7 88
2019-04-21 05:00:00 8 8 Nordeste 12 Nordeste 0 948.5 -2.8 88
2019-04-21 04:00:00 7.8 3 Noroeste 8 Noroeste 0.4 949.1 -2.5 87
2019-04-21 03:00:00 8.3 3 Norte 7 Nordeste 1.4 950.2 -1.5 85
2019-04-21 02:00:00 8.8 5 Nordeste 16 Este 0.2 951.3 -0.2 79
2019-04-21 01:00:00 10.1 3 Este 14 Este 0 951.6 0.7 70
2019-04-21 00:00:00 10.7 4 Este 17 Sudeste 0 951.7 1.2 64
2019-04-20 23:00:00 11 3 Este 15 Sudoeste 0 951.5 1.7 63
2019-04-20 22:00:00 11.1 6 Sudeste 28 Sudeste 0 950.9 1.6 63
2019-04-20 21:00:00 12.4 12 Sudeste 35 Sudeste 0 950.5 1.2 55
2019-04-20 20:00:00 14 12 Sudeste 26 Sudeste 0 949.8 0.2 47
2019-04-20 19:00:00 16.6 13 Este 29 Este 0 949.3 -1 38
2019-04-20 18:00:00 17.6 17 Este 31 Este 0 949.3 -1.1 32
2019-04-20 17:00:00 18.4 16 Este 35 Este 0 949.6 -1.3 32
2019-04-20 16:00:00 18.2 19 Este 36 Este 0 950.3 -1.5 33
2019-04-20 15:00:00 18.1 18 Este 41 Este 0 950.4 -1.4 33
2019-04-20 14:00:00 18.8 24 Este 41 Este 0 950.9 -0.9 32
2019-04-20 13:00:00 16.9 11 Nordeste 33 Nordeste 0 951.8 -0.3 40
2019-04-20 12:00:00 16.5 14 Nordeste 30 Nordeste 0 951.8 -0.7 43
2019-04-20 11:00:00 13.9 15 Nordeste 30 Nordeste 0 951.8 -0.9 47
2019-04-20 10:00:00 13.4 9 Nordeste 25 Nordeste 0 952.1 0.3 49
2019-04-20 09:00:00 11.4 6 Oeste 15 Norte 0 952.5 0.2 58
2019-04-20 08:00:00 10.7 5 Norte 30 Nordeste 0 952.7 -0.2 60
2019-04-20 07:00:00 11.1 13 Nordeste 28 Nordeste 0 951.8 -1.4 60
2019-04-20 06:00:00 10.6 4 Sur 7 Sur 0 952.3 -1.5 65
2019-04-20 05:00:00 11.2 5 Nordeste 18 Norte 0 952.9 -0.5 62
2019-04-20 04:00:00 11.8 12 Norte 19 Norte 0 953.2 -0.4 59
2019-04-20 03:00:00 11.4 2 Sudeste 13 Norte 0 953.8 0.2 62
2019-04-20 02:00:00 12 4 Noroeste 19 Este 0 953.4 0 59
2019-04-20 01:00:00 12.9 4 Este 21 Este 0 953.6 0.6 55
2019-04-20 00:00:00 14 12 Este 55 Este 0 953.6 1.5 49
2019-04-19 23:00:00 14.7 24 Este 45 Este 0 953.4 2.1 44
2019-04-19 22:00:00 14.4 17 Este 35 Este 0 953 2.1 48
2019-04-19 21:00:00 14.7 13 Este 43 Este 0 952.1 2.7 48
2019-04-19 20:00:00 15.6 21 Este 40 Este 0 951.3 1.6 44
2019-04-19 19:00:00 16.3 18 Este 59 Nordeste 0 950.9 0.4 42
2019-04-19 18:00:00 16.7 35 Este 61 Nordeste 0 949.4 -0.9 44
2019-04-19 17:00:00 16.7 28 Este 52 Este 0 949.7 -0.2 47
2019-04-19 16:00:00 16.9 24 Este 45 Este 0 950.5 0.5 51
2019-04-19 15:00:00 15.6 12 Este 45 Este 0 950.3 0.2 58
2019-04-19 14:00:00 14.8 22 Este 45 Este 0 949.9 0.3 62
2019-04-19 13:00:00 12.9 24 Este 44 Este 0 950 0.8 73
2019-04-19 12:00:00 10.3 12 Nordeste 38 Este 0 950.1 1.1 88
2019-04-19 11:00:00 10.4 17 Este 32 Nordeste 0.2 949.6 1.1 90
2019-04-19 10:00:00 9.8 9 Nordeste 15 Nordeste 0.4 949.2 1.3 91
2019-04-19 09:00:00 9.8 9 Nordeste 18 Nordeste 1.2 949 1.4 91
2019-04-19 08:00:00 9.8 12 Nordeste 17 Nordeste 1.2 948.5 1 90
2019-04-19 07:00:00 10 14 Nordeste 26 Nordeste 1.2 947.9 1 89
2019-04-19 06:00:00 9.7 16 Nordeste 24 Nordeste 2.2 947.6 0.2 91
2019-04-19 05:00:00 9.2 3 Sur 9 Nordeste 1.8 947.5 0.2 91
2019-04-19 04:00:00 9 8 Nordeste 13 Nordeste 1.2 946.9 -0.3 91
2019-04-19 03:00:00 8.8 4 Oeste 18 Nordeste 0.8 947.4 0.5 91
2019-04-19 02:00:00 8.9 11 Nordeste 22 Nordeste 2.6 947.3 0.7 90
2019-04-19 01:00:00 9 8 Nordeste 16 Nordeste 1.8 947.2 0.8 90
2019-04-19 00:00:00 9.1 11 Nordeste 16 Nordeste 3.8 946.9 1.9 90
2019-04-18 23:00:00 9.4 13 Nordeste 17 Nordeste 4 946.6 2.4 90
2019-04-18 22:00:00 9.4 9 Sudoeste 19 Sudoeste 4 946.4 2.6 90
2019-04-18 21:00:00 9.5 5 Sur 18 Oeste 2.6 945 1.5 88
2019-04-18 20:00:00 9.9 9 Sudoeste 39 Oeste 0.6 944.2 -0.1 84
2019-04-18 19:00:00 12.6 12 Sudoeste 32 Este 0 943.8 -0.3 70
2019-04-18 18:00:00 14.5 5 Norte 34 Este 0 943.5 -0.3 63
2019-04-18 17:00:00 14.5 10 Este 35 Este 0.2 944.3 -0.9 58
2019-04-18 16:00:00 16.4 21 Este 37 Este 0 944.1 -2.2 48
2019-04-18 15:00:00 14.8 18 Nordeste 35 Este 0 943.8 -2.9 54
2019-04-18 14:00:00 14.2 17 Nordeste 30 Nordeste 0 945.2 -1.3 59
2019-04-18 13:00:00 12.5 18 Nordeste 25 Norte 0 946.3 -1 75
2019-04-18 12:00:00 12.4 15 Nordeste 32 Nordeste 0 946.7 0.5 76
2019-04-18 11:00:00 11.7 17 Nordeste 27 Nordeste 0.2 946.5 0 81
2019-04-18 10:00:00 10.1 6 Norte 17 Nordeste 0.4 947.3 1.3 86
2019-04-18 09:00:00 10 15 Nordeste 30 Nordeste 0.6 946.2 0.4 84
2019-04-18 08:00:00 10.4 18 Nordeste 29 Nordeste 0 946.5 0.4 80
2019-04-18 07:00:00 10.7 14 Nordeste 26 Nordeste 0 946 -0.3 78
2019-04-18 06:00:00 11.5 5 Nordeste 19 Nordeste 0 945.8 -0.2 75
2019-04-18 05:00:00 11.7 9 Nordeste 17 Nordeste 0 946.1 0.1 73
2019-04-18 04:00:00 12.1 5 Norte 26 Nordeste 0 946.3 1 73
2019-04-18 03:00:00 12.4 12 Nordeste 22 Nordeste 0 946 0.4 72
2019-04-18 02:00:00 13.1 16 Nordeste 24 Nordeste 0 946 0.6 70
2019-04-18 01:00:00 14.2 18 Nordeste 28 Nordeste 0 945.3 1.3 65
2019-04-18 00:00:00 14.9 14 Nordeste 21 Nordeste 0 945.6 2.1 63
2019-04-17 23:00:00 15.8 10 Nordeste 20 Nordeste 0 945.4 2.4 60
2019-04-17 22:00:00 16.8 15 Nordeste 26 Nordeste 0 944 1.4 55
2019-04-17 21:00:00 18 19 Nordeste 31 Nordeste 0 943.5 0.8 50
2019-04-17 20:00:00 19.7 17 Nordeste 33 Nordeste 0 943 0 44
2019-04-17 19:00:00 20.9 23 Nordeste 39 Nordeste 0 942.6 -1.5 42
2019-04-17 18:00:00 23 19 Este 41 Nordeste 0 942.7 -2 36
2019-04-17 17:00:00 22.2 23 Nordeste 42 Nordeste 0 943 -2.2 38
2019-04-17 16:00:00 21.1 27 Nordeste 39 Nordeste 0 944.1 -1.6 41
2019-04-17 15:00:00 19.5 23 Nordeste 38 Nordeste 0 944.7 -1.8 46
2019-04-17 14:00:00 19 22 Nordeste 37 Nordeste 0 945.2 -1.8 46
2019-04-17 13:00:00 18.3 19 Norte 36 Nordeste 0 945.7 -1.6 48
2019-04-17 12:00:00 16.1 15 Norte 26 Norte 0 946.5 -0.8 53
2019-04-17 11:00:00 15.3 16 Norte 25 Nordeste 0 947 -0.4 54
2019-04-17 10:00:00 13.3 12 Nordeste 19 Nordeste 0 947.3 0.1 60
2019-04-17 09:00:00 12.4 6 Nordeste 14 Nordeste 0 947.3 -0.1 63
2019-04-17 08:00:00 10.6 6 Nordeste 13 Este 0 947.4 -0.1 70
2019-04-17 07:00:00 10.7 5 Nordeste 11 Norte 0 947.2 -1.1 70
2019-04-17 06:00:00 11.5 3 Este 7 Este 0 947.4 -1.3 67
2019-04-17 05:00:00 11.8 3 Este 10 Este 0 947.5 -1.3 67
2019-04-17 04:00:00 12.2 8 Este 13 Este 0 948.3 -0.2 68
2019-04-17 03:00:00 12.7 6 Este 14 Este 0 948.7 0.1 67
2019-04-17 02:00:00 13.3 8 Este 18 Este 0 948.8 0.3 64
2019-04-17 01:00:00 13.2 9 Este 15 Este 0 948.5 0.2 60
2019-04-17 00:00:00 14.1 3 Este 16 Este 0 948.6 0.9 50
2019-04-16 23:00:00 14.4 4 Este 8 Sudeste 0 948.5 1.2 47
2019-04-16 22:00:00 15.8 6 Este 21 Nordeste 0 948.3 0.9 42
2019-04-16 21:00:00 17.7 14 Este 30 Nordeste 0 947.7 -0.1 38
2019-04-16 20:00:00 19.2 18 Nordeste 34 Nordeste 0 947.3 -1 36
2019-04-16 19:00:00 19.6 21 Nordeste 34 Nordeste 0 947.4 -1.7 36
2019-04-16 18:00:00 21.3 17 Nordeste 26 Norte 0 947.8 -2.1 32
2019-04-16 17:00:00 21.6 7 Este 21 Norte 0 948.3 -2 25
2019-04-16 16:00:00 21 5 Sudeste 25 Este 0 949.1 -1.6 27
2019-04-16 15:00:00 19.5 9 Nordeste 17 Este 0 949.9 -1.4 30
2019-04-16 14:00:00 18.9 6 Oeste 13 Sur 0 950.3 -1 30
2019-04-16 13:00:00 17.5 5 Este 13 Sur 0 950.7 -0.7 37
2019-04-16 12:00:00 15.9 5 Sudeste 12 Este 0 951.3 0.2 50
2019-04-16 11:00:00 13.8 4 Sudeste 13 Sudoeste 0 951.3 0.8 58
2019-04-16 10:00:00 12.4 4 Sudoeste 9 Sur 0 951.4 1.4 63
2019-04-16 09:00:00 10.8 3 Sur 5 Sur 0 951.1 1.2 73
2019-04-16 08:00:00 9.7 4 Sudoeste 8 Este 0 950.5 0.9 77
2019-04-16 07:00:00 10.5 3 Este 6 Este 0 950 0.6 75
2019-04-16 06:00:00 10.6 7 Nordeste 14 Este 0 949.9 0.7 73
2019-04-16 05:00:00 10.9 7 Este 22 Nordeste 0 949.6 1.2 74
2019-04-16 04:00:00 11.1 11 Nordeste 27 Nordeste 0 949.4 1.7 75
2019-04-16 03:00:00 11.3 17 Nordeste 32 Nordeste 0 949.2 1.9 76
2019-04-16 02:00:00 12.3 17 Nordeste -- -- 0 948.4 2.1 68
2019-04-16 01:00:00 14.2 9 Oeste 23 Oeste 0 947.7 2.6 53
2019-04-16 00:00:00 15.2 13 Oeste 24 Oeste 0 947.3 5.1 59
2019-04-15 23:00:00 15.9 12 Noroeste 19 Noroeste 0 946.3 5 59
2019-04-15 22:00:00 15.8 10 Nordeste 38 Norte 0 945.1 4.3 61
2019-04-15 21:00:00 17.8 19 Nordeste 35 Nordeste 0 942.2 1 55
2019-04-15 20:00:00 24.1 14 Oeste 35 Sudoeste 0 941.3 -0.7 27
2019-04-15 19:00:00 25.6 17 Sudoeste 38 Sudoeste 0 940.8 -1.8 24
2019-04-15 18:00:00 24.5 5 Norte 17 Oeste 0 941.2 -1.9 31
2019-04-15 17:00:00 23.9 12 Oeste 29 Sudoeste 0 942 -1.7 31
2019-04-15 16:00:00 25.1 15 Sudoeste 31 Sudoeste 0 942.6 -1.9 29
2019-04-15 15:00:00 24 16 Sudoeste 29 Sur 0 943.1 -2.2 30
2019-04-15 14:00:00 23.6 7 Norte 14 Nordeste 0 943.7 -2.3 37
2019-04-15 13:00:00 21.3 6 Norte 11 Nordeste 0 944.5 -2 45
2019-04-15 12:00:00 18.5 4 Noroeste 8 Norte 0 945.3 -1.6 54
2019-04-15 11:00:00 15.4 3 Noroeste 8 Oeste 0 946 -0.8 64
2019-04-15 10:00:00 12.2 3 Oeste 7 Oeste 0 946.5 -0.3 76
2019-04-15 09:00:00 9.8 3 Este 7 Sudoeste 0 946.9 -0.1 85
2019-04-15 08:00:00 8.6 3 Este 7 Este 0 946.8 -0.5 86
2019-04-15 07:00:00 8.4 4 Sudoeste 10 Sudoeste 0 946.8 -0.8 87
2019-04-15 06:00:00 9.3 2 Nordeste 4 Sudoeste 0 947 -1 83
2019-04-15 05:00:00 10 2 Sudoeste 4 Norte 0 947.3 -1.1 81
2019-04-15 04:00:00 10.7 3 Noroeste 6 Sudoeste 0 947.6 -0.9 79
2019-04-15 03:00:00 11.6 3 Oeste 5 Oeste 0 948 -0.4 75
2019-04-15 02:00:00 12.8 2 Oeste 8 Este 0 948.4 0.2 72
2019-04-15 01:00:00 13.7 3 Este 9 Sur 0 948.5 0.7 68
2019-04-15 00:00:00 15.1 3 Sur 9 Sudeste 0 948.4 1.1 62
2019-04-14 23:00:00 16.8 3 Sudeste 22 Nordeste 0 948.2 1.5 55
2019-04-14 22:00:00 18.3 12 Nordeste 28 Nordeste 0 947.8 1.4 50
2019-04-14 21:00:00 19.8 17 Nordeste 29 Nordeste 0 947.3 1.1 44
2019-04-14 20:00:00 21.4 12 Nordeste 26 Nordeste 0 946.7 0.2 35
2019-04-14 19:00:00 22.3 17 Nordeste 27 Nordeste 0 946.4 -0.6 33
2019-04-14 18:00:00 24.3 15 Oeste 34 Oeste 0 946.2 -1.2 32
2019-04-14 17:00:00 24.5 22 Oeste 37 Oeste 0 946.5 -1 32
2019-04-14 16:00:00 23.4 19 Oeste 37 Oeste 0 947 -1.2 34
2019-04-14 15:00:00 22.7 19 Oeste 41 Oeste 0 947.4 -1.5 36
2019-04-14 14:00:00 21.9 22 Oeste 36 Oeste 0 947.5 -1.6 37
2019-04-14 13:00:00 20 3 Norte 12 Sur 0 948.2 -1.2 43
2019-04-14 12:00:00 16.9 5 Sudoeste 9 Sudoeste 0 948.9 -0.6 48
2019-04-14 11:00:00 12.2 2 Noroeste 8 Norte 0 949.1 -0.3 48
2019-04-14 10:00:00 8.8 2 Noroeste 7 Nordeste 0 949.4 0.4 57
2019-04-14 09:00:00 6 3 Sur 7 Sur 0 949.5 0.6 62
2019-04-14 08:00:00 4.4 4 Nordeste 8 Nordeste 0 949.4 0.2 66
2019-04-14 07:00:00 4.7 2 Sudeste 4 Sudeste 0 949 -0.3 64
2019-04-14 06:00:00 4.8 3 Sur 7 Este 0 948.9 -0.3 60
2019-04-14 05:00:00 4.9 3 Sur 8 Sur 0 949.2 -0.4 59
2019-04-14 04:00:00 5.3 0 Calma 5 Nordeste 0 949.3 -0.2 58
2019-04-14 03:00:00 6.5 0 Calma 4 Sur 0 949.2 -0.5 50
2019-04-14 02:00:00 7.3 5 Nordeste 9 Nordeste 0 949.6 0.2 47
2019-04-14 01:00:00 8.7 2 Norte 9 Nordeste 0 949.5 0.8 42
2019-04-14 00:00:00 9.8 5 Norte 13 Sudeste 0 949.7 1.6 40
2019-04-13 23:00:00 12.6 6 Sur 11 Sur 0 949.4 1.9 31
2019-04-13 22:00:00 14.8 3 Noroeste 13 Este 0 948.7 1.2 17
2019-04-13 21:00:00 17.7 7 Nordeste 15 Nordeste 0 948.1 0.3 14
2019-04-13 20:00:00 20.8 9 Nordeste 21 Norte 0 947.5 -0.6 11
2019-04-13 19:00:00 22 5 Este 15 Este 0 947.5 -1.3 11
2019-04-13 18:00:00 22.1 4 Nordeste 12 Este 0 947.8 -1.7 11
2019-04-13 17:00:00 21.3 7 Sudoeste 20 Nordeste 0 948.1 -1.7 13
2019-04-13 16:00:00 21.1 4 Nordeste 13 Este 0 948.8 -1.9 15
2019-04-13 15:00:00 19.4 4 Norte 11 Oeste 0 949.5 -2 16
2019-04-13 14:00:00 17.5 5 Sudoeste 10 Sudoeste 0 949.8 -2 19
2019-04-13 13:00:00 14.8 4 Sur 10 Sur 0 950.7 -1 29
2019-04-13 12:00:00 11.3 4 Sudoeste 10 Sur 0 951.5 -0.1 39
2019-04-13 11:00:00 7.9 4 Norte 11 Nordeste 0 951.8 0.3 56
2019-04-13 10:00:00 4.6 3 Norte 7 Norte 0 951.7 0.9 70
2019-04-13 09:00:00 2 3 Oeste 4 Norte 0 951.6 1.3 79
2019-04-13 08:00:00 0.2 3 Nordeste 5 Norte 0 951.5 1.4 84
2019-04-13 07:00:00 0.9 2 Noroeste 5 Nordeste 0 950.8 0.8 84
2019-04-13 06:00:00 1.6 4 Nordeste 6 Sudeste 0 950.3 0 83
2019-04-13 05:00:00 2.2 3 Sudoeste 5 Norte 0 950.1 -0.2 80
2019-04-13 04:00:00 3.2 0 Calma 4 Nordeste 0 950 0 77
2019-04-13 03:00:00 4.2 2 Este 6 Este 0 950.3 0.4 73
2019-04-13 02:00:00 5.3 5 Nordeste 11 Sudeste 0 950.3 1 71
2019-04-13 01:00:00 6.3 5 Sur 17 Sur 0 950 1.1 66
2019-04-13 00:00:00 8.4 4 Sur 11 Este 0 949.9 1.8 57
2019-04-12 23:00:00 10.3 9 Este 23 Nordeste 0 949.3 1.6 49
2019-04-12 22:00:00 11.3 8 Este 17 Nordeste 0 948.9 1.3 45
2019-04-12 21:00:00 13.6 12 Nordeste 28 Nordeste 0 948.1 0.6 37
2019-04-12 20:00:00 16 15 Nordeste 28 Nordeste 0 947.7 -0.2 32
2019-04-12 19:00:00 17.6 10 Este 24 Este 0 947.6 -1.2 29
2019-04-12 18:00:00 18.6 5 Sudeste 20 Sur 0 947.5 -1.7 28
2019-04-12 17:00:00 17.4 6 Nordeste 15 Nordeste 0 947.9 -1.4 29
2019-04-12 16:00:00 16.9 7 Este 19 Nordeste 0 948.8 -1.2 31
2019-04-12 15:00:00 16.1 5 Este 17 Este 0 949.2 -1.2 32
2019-04-12 14:00:00 14.3 7 Nordeste 15 Sur 0 949.3 -1.2 38
2019-04-12 13:00:00 12.8 4 Sudoeste 13 Sudoeste 0 950 -0.5 42
2019-04-12 12:00:00 12.2 5 Este 14 Sudeste 0 950.4 -0.1 42
2019-04-12 11:00:00 8.9 5 Sur 11 Sur 0 950.5 0 63
2019-04-12 10:00:00 5.5 2 Noroeste 5 Nordeste 0 950.5 0.4 74
2019-04-12 09:00:00 2.8 2 Norte 5 Nordeste 0 950.5 0.5 84
2019-04-12 08:00:00 1.2 0 Calma 5 Norte 0 950.5 0.3 86
2019-04-12 07:00:00 1.7 3 Nordeste 7 Nordeste 0 950.1 0 86
2019-04-12 06:00:00 2.1 2 Nordeste 10 Nordeste 0 950 -0.7 84
2019-04-12 05:00:00 2.8 6 Nordeste 10 Sudeste 0 950.2 -0.7 82
2019-04-12 04:00:00 3.3 5 Sur 13 Sudeste 0 950.1 -0.9 80
2019-04-12 03:00:00 4.5 3 Este 8 Sur 0 950.7 -0.2 74
2019-04-12 02:00:00 5.9 6 Sur 12 Sudoeste 0 950.9 0.2 69
2019-04-12 01:00:00 7 8 Sur 13 Sudoeste 0 951 0.7 65
2019-04-12 00:00:00 8.1 4 Nordeste 19 Noroeste 0 950.9 1.4 60
2019-04-11 23:00:00 8.7 9 Noroeste 21 Noroeste 0 950.7 1.7 58
2019-04-11 22:00:00 9.7 9 Noroeste 24 Norte 0 950.3 1.8 55
2019-04-11 21:00:00 10.8 10 Norte 24 Noroeste 0 949.5 1.3 52
2019-04-11 20:00:00 12.5 17 Noroeste 41 Noroeste 0 949 1 44
2019-04-11 19:00:00 14.6 24 Noroeste 45 Noroeste 0 948.5 0.3 38
2019-04-11 18:00:00 15.1 15 Norte 30 Nordeste 0 948.2 -0.3 39
2019-04-11 17:00:00 14.9 16 Norte 28 Noroeste 0 948 -0.7 38
2019-04-11 16:00:00 14.6 19 Noroeste 31 Noroeste 0 948.2 -1.1 38
2019-04-11 15:00:00 13.8 16 Noroeste 29 Noroeste 0 948.5 -1.1 37
2019-04-11 14:00:00 14.9 12 Norte 24 Nordeste 0 948.7 -1 37
2019-04-11 13:00:00 13.7 10 Nordeste 18 Nordeste 0 949.3 -0.7 39
2019-04-11 12:00:00 12.3 5 Sur 12 Sudoeste 0 949.6 -0.4 48
2019-04-11 11:00:00 9 3 Oeste 13 Oeste 0 949.7 0.2 63
2019-04-11 10:00:00 6.2 3 Sudoeste 10 Sur 0 950 0.9 77
2019-04-11 09:00:00 3.1 3 Oeste 9 Norte 0 950 1.1 86
2019-04-11 08:00:00 1.5 8 Norte 10 Norte 0 949.5 0.7 88
2019-04-11 07:00:00 2.2 3 Nordeste 10 Nordeste 0 949.1 0.6 86
2019-04-11 06:00:00 2.9 3 Nordeste 11 Sur 0 948.9 0.1 83
2019-04-11 05:00:00 3.7 8 Sudeste 10 Sudeste 0 948.8 0.1 80
2019-04-11 04:00:00 5.2 7 Sur 13 Sur 0 948.5 0.1 75
2019-04-11 03:00:00 5.5 7 Sudoeste 12 Sudeste 0 948.8 0.8 74
2019-04-11 02:00:00 5.9 7 Sur 12 Sur 0 948.7 0.7 73
2019-04-11 01:00:00 6.3 5 Sur 10 Sudeste 0 948.4 1.3 71
2019-04-11 00:00:00 7.9 5 Sur 10 Noroeste 0 948 2.3 64
2019-04-10 23:00:00 9.2 6 Noroeste 15 Noroeste 0 948 2.9 58
2019-04-10 22:00:00 10.4 8 Norte 26 Noroeste 0 947.1 2.6 51
2019-04-10 21:00:00 10.7 7 Nordeste 14 Este 0 945.7 1.4 63
2019-04-10 20:00:00 11.4 5 Sur 13 Sur 0 945.1 0.7 59
2019-04-10 19:00:00 11.3 5 Sudoeste 21 Oeste 0 944.5 0.4 60
2019-04-10 18:00:00 11.4 13 Oeste 34 Sudoeste 0 944.3 0.1 59
2019-04-10 17:00:00 11 14 Sudoeste 33 Oeste 0.2 944.4 0.1 65
2019-04-10 16:00:00 10.7 13 Sur 21 Sur 0 944.1 -0.1 70
2019-04-10 15:00:00 10.5 10 Sur 18 Sudeste 1.2 944.2 -0.6 71
2019-04-10 14:00:00 9.8 9 Este 33 Oeste 0.2 944.3 -0.8 69
2019-04-10 13:00:00 11.7 19 Oeste 35 Oeste 0 944.2 -0.6 53
2019-04-10 12:00:00 10.5 17 Oeste 34 Oeste 0 944.8 0 58
2019-04-10 11:00:00 8.9 14 Oeste 26 Oeste 0 945.1 0.8 65
2019-04-10 10:00:00 7.8 8 Oeste 13 Oeste 0 944.8 0.9 76
2019-04-10 09:00:00 5.6 2 Sudeste 10 Sur 0 944.8 1.1 84
2019-04-10 08:00:00 4.7 2 Sur 8 Sur 0 944.3 0.5 83
2019-04-10 07:00:00 5.2 4 Sudeste 9 Sudoeste 0 943.9 0 81
2019-04-10 06:00:00 5.8 5 Sudoeste 12 Sudoeste 0 943.7 -0.4 78
2019-04-10 05:00:00 6.1 6 Sudoeste 10 Sudoeste 0 943.8 -0.3 78
2019-04-10 04:00:00 6.2 4 Sudoeste 27 Sudoeste 0 943.9 -0.5 78
2019-04-10 03:00:00 6.9 11 Oeste 18 Oeste 0 944.1 0.1 76
2019-04-10 02:00:00 7.3 8 Oeste 32 Oeste 0 944.1 0.3 74
2019-04-10 01:00:00 7.8 13 Oeste 23 Noroeste 0 944.4 0.9 76
2019-04-10 00:00:00 7.9 6 Oeste 12 Noroeste 0 944 0.8 76
2019-04-09 23:00:00 7.5 7 Sudoeste 15 Sudoeste 0 943.8 0.8 80
2019-04-09 22:00:00 7.6 8 Sudoeste 13 Sudoeste 0 943.5 0.7 80
2019-04-09 21:00:00 7.4 8 Sudoeste 19 Sudoeste 0 943.2 0.3 83
2019-04-09 20:00:00 7.2 10 Sudoeste 22 Sudoeste 0.6 943 1.7 84
2019-04-09 19:00:00 6.9 10 Sudoeste 32 Oeste 0.6 942.8 0.9 83
2019-04-09 18:00:00 7.4 23 Oeste 58 Oeste 3.4 942.9 0.5 84
2019-04-09 17:00:00 13 15 Sudoeste 33 Sudoeste 0 941.3 -1.5 51
2019-04-09 16:00:00 13.5 18 Oeste 33 Oeste 0 941.9 -1.5 44
2019-04-09 15:00:00 13.6 18 Oeste 37 Oeste 0 942.4 -1.7 44
2019-04-09 14:00:00 13 20 Oeste 35 Oeste 0 942.8 -1.6 47
2019-04-09 13:00:00 12.8 18 Sudoeste 32 Oeste 0 943.4 -1.3 46
2019-04-09 12:00:00 10.9 21 Oeste 37 Oeste 0 944.1 -0.8 58
2019-04-09 11:00:00 9.8 17 Oeste 32 Oeste 0 944.4 -0.4 65
2019-04-09 10:00:00 7.8 6 Sudoeste 11 Sudoeste 0 944.7 0.2 71
2019-04-09 09:00:00 6.1 5 Sudoeste 9 Sudoeste 0 944.9 0.7 78
2019-04-09 08:00:00 5.4 6 Sur 12 Sur 0 944.8 0.4 81
2019-04-09 07:00:00 6.1 2 Oeste 7 Sur 0 944.5 -0.1 81
2019-04-09 06:00:00 6.4 5 Sudoeste 12 Sudoeste 0 944.2 -0.7 79
2019-04-09 05:00:00 7.1 7 Sur 17 Sur 0 944.4 0.2 74
2019-04-09 04:00:00 7 11 Sudoeste 17 Sudoeste 0 944.6 0.5 78
2019-04-09 03:00:00 7.5 6 Sudoeste 26 Oeste 0.4 944.9 0.9 81
2019-04-09 02:00:00 8.1 -- -- -- -- 0 944.2 0.2 74
2019-04-09 01:00:00 9.8 5 Sur 34 Sudoeste 0 944.1 0.7 59
2019-04-09 00:00:00 9.1 15 Sudoeste 30 Sudoeste 0 944 1.3 67
2019-04-08 23:00:00 10.3 14 Sudoeste 40 Sudoeste 0 944 1.3 59
2019-04-08 22:00:00 10.7 4 Nordeste 9 Sudoeste 0 943.4 0.4 69
2019-04-08 21:00:00 11.9 6 Sur 11 Nordeste 0 942.7 -0.3 60
2019-04-08 20:00:00 12.8 6 Este 12 Nordeste 0 942.7 -0.3 59
2019-04-08 19:00:00 13.2 2 Oeste 41 Oeste 0 943 -0.3 55
2019-04-08 18:00:00 14.2 28 Oeste -- -- 0 943 -0.6 53
2019-04-08 17:00:00 15 15 Noroeste 36 Oeste 0 943 -0.9 49
2019-04-08 16:00:00 15.8 21 Oeste 37 Oeste 0 943.3 -0.8 52
2019-04-08 15:00:00 15.5 15 Oeste 40 Oeste 0.2 943.6 -0.9 52
2019-04-08 14:00:00 14.8 14 Sudoeste 25 Oeste 0 943.9 -0.4 60
2019-04-08 13:00:00 12.6 9 Sudoeste 22 Oeste 0 944.1 -0.2 70
2019-04-08 12:00:00 11.2 4 Sudoeste 9 Nordeste 0 944.5 0.3 75
2019-04-08 11:00:00 9.7 0 Calma 8 Sudeste 0.6 944.3 0.5 83
2019-04-08 10:00:00 9.1 4 Sur 11 Sur 0 944.3 0.8 79
2019-04-08 09:00:00 7.9 4 Sur 9 Sudeste 0 944.2 0.6 83
2019-04-08 08:00:00 6.9 4 Sudoeste 7 Sudoeste 0 943.8 0.2 84
2019-04-08 07:00:00 7.1 4 Oeste 10 Sur 0 943.5 -0.3 84
2019-04-08 06:00:00 7.2 2 Sudeste 6 Noroeste 0 943.6 -0.8 85
2019-04-08 05:00:00 7 3 Sudoeste 7 Sur 0 943.6 -1.5 84
2019-04-08 04:00:00 7.5 3 Sudoeste 5 Sudoeste 0 943.8 -1.6 79
2019-04-08 03:00:00 7.5 3 Sudoeste 6 Sudoeste 0 944.4 -0.8 79
2019-04-08 02:00:00 7.6 5 Sudoeste 18 Oeste 0.2 945.1 0.2 79
2019-04-08 01:00:00 8.9 12 Oeste 24 Oeste 0 945.4 1.2 65
2019-04-08 00:00:00 9.7 15 Oeste 34 Sudoeste 0 945.2 1.5 58
2019-04-07 23:00:00 10.4 21 Sudoeste 36 Oeste 0 944.9 1.4 55
2019-04-07 22:00:00 10.9 4 Sur 8 Sur 0 944.2 1.1 47
2019-04-07 21:00:00 11.6 5 Oeste 13 Oeste 0 943.7 0.7 43
2019-04-07 20:00:00 12.4 8 Oeste 25 Oeste 0 943.5 0.6 40
2019-04-07 19:00:00 12.9 18 Oeste 36 Noroeste 0 943.1 0.5 36
2019-04-07 18:00:00 12.7 19 Oeste 40 Oeste 0 943 0.4 36
2019-04-07 17:00:00 13.3 22 Oeste 47 Sudoeste 0 942.9 0.3 35
2019-04-07 16:00:00 12.9 27 Oeste 45 Oeste 0 942.6 0.3 40
2019-04-07 15:00:00 12.1 23 Oeste 44 Oeste 0 942.6 0.6 40
2019-04-07 14:00:00 10.6 24 Oeste 40 Sudoeste 0 942.6 1.2 50
2019-04-07 13:00:00 9.9 22 Oeste 39 Oeste 0 942.3 1.4 49
2019-04-07 12:00:00 9.5 20 Oeste 39 Oeste 0 942 1.8 53
2019-04-07 11:00:00 8.1 31 Oeste 48 Oeste 0 941.4 2.4 56
2019-04-07 10:00:00 7.2 14 Oeste 33 Oeste 0 940.9 2.6 65
2019-04-07 09:00:00 4.4 5 Oeste 10 Noroeste 0 940.2 2.8 76
2019-04-07 08:00:00 4.2 5 Oeste 20 Oeste 0 939 1.6 76
2019-04-07 07:00:00 4.6 8 Oeste 30 Oeste 0 938.3 1.5 75
2019-04-07 06:00:00 5.4 21 Oeste 37 Sudoeste 0 937.4 0.8 73
2019-04-07 05:00:00 5.6 9 Noroeste 17 Oeste 0 937.4 0.8 72
2019-04-07 04:00:00 5 10 Oeste 21 Oeste 0 936.8 0 82
2019-04-07 03:00:00 4.5 7 Sudoeste 11 Sudoeste 0 936.6 0.4 85
2019-04-07 02:00:00 4.3 4 Sudoeste 12 Oeste 0 936.6 1 87
2019-04-07 01:00:00 4.5 11 Oeste 28 Oeste 1 936.8 1.2 86
2019-04-07 00:00:00 5 4 Sudoeste 32 Sudoeste 1 936.2 0.7 86
2019-04-06 23:00:00 4.5 6 Sur 9 Sudeste 0 935.6 1.5 85
2019-04-06 22:00:00 4.8 4 Noroeste 18 Sur 0.2 935.6 1.6 84
2019-04-06 21:00:00 4.8 9 Sudoeste 38 Noroeste 1.2 935.5 2.5 83
2019-04-06 20:00:00 7.5 5 Noroeste 16 Oeste 0 934.1 1.4 78
2019-04-06 19:00:00 6.4 15 Oeste 50 Oeste 0.8 934 1.3 77
2019-04-06 18:00:00 9.8 17 Sudoeste 40 Sudoeste 0.2 933 0.1 54
2019-04-06 17:00:00 10.5 17 Sudoeste 45 Oeste 0.2 932.7 -0.6 52
2019-04-06 16:00:00 10.6 17 Sudoeste 45 Oeste 0 932.7 -1.3 50
2019-04-06 15:00:00 11.5 26 Sudoeste 47 Sudoeste 0 932.9 -1 42
2019-04-06 14:00:00 10.8 23 Sudoeste 46 Sudoeste 0 933.3 -0.7 46
2019-04-06 13:00:00 9.3 28 Oeste 46 Oeste 0 934 -0.2 48
2019-04-06 12:00:00 8.8 21 Oeste 35 Oeste 0 933.9 -0.2 52
2019-04-06 11:00:00 8.1 21 Oeste 36 Oeste 0 934 0.7 60
2019-04-06 10:00:00 6 9 Sudoeste 17 Sudoeste 0 934.2 1.2 70
2019-04-06 09:00:00 4.7 7 Sudoeste 15 Sudoeste 0 934.1 1.2 75
2019-04-06 08:00:00 3.7 6 Sudoeste 14 Sudoeste 0 933.3 0.5 79
2019-04-06 07:00:00 2.8 6 Sudoeste 12 Sudoeste 0 933 0.1 83
2019-04-06 06:00:00 3 5 Sur 18 Oeste 0 932.9 -0.3 82
2019-04-06 05:00:00 3.7 13 Oeste 23 Sudoeste 0 932.8 -0.3 80
2019-04-06 04:00:00 3.7 10 Sudoeste 19 Oeste 0 932.9 0 81
2019-04-06 03:00:00 3.9 6 Sudoeste 13 Sudoeste 0 933.2 0.5 82
2019-04-06 02:00:00 3.9 2 Sudoeste 8 Oeste 0 933.1 0.9 85
2019-04-06 01:00:00 3.8 0 Calma 10 Oeste 0 932.9 0.6 87
2019-04-06 00:00:00 3.4 3 Nordeste 9 Sur 0 932.7 2 88
2019-04-05 23:00:00 3.1 5 Sur 27 Sudoeste 1 932.2 2.4 88
2019-04-05 22:00:00 3.9 16 Oeste 41 Sudoeste 2.4 932.3 2.9 86
2019-04-05 21:00:00 6.9 16 Sudoeste 26 Sudoeste 0 930.7 0.4 74
2019-04-05 20:00:00 8.2 20 Oeste 35 Oeste 0 929.8 -0.8 69
2019-04-05 19:00:00 10.1 4 Nordeste 13 Norte 0 929.4 -2 72
2019-04-05 18:00:00 9.7 7 Nordeste 17 Nordeste 0 930.3 -1.3 74
2019-04-05 17:00:00 8.8 11 Nordeste 17 Nordeste 0.2 930.6 -1.3 79
2019-04-05 16:00:00 8.7 4 Oeste 17 Noroeste 0.6 931.4 -0.6 75
2019-04-05 15:00:00 9.5 8 Noroeste 25 Sur 0.4 931.6 -0.7 64
2019-04-05 14:00:00 10.1 10 Sudoeste 27 Sur 0 931.9 -0.2 54
2019-04-05 13:00:00 10.7 8 Sudoeste 23 Sudoeste 0 932 -0.3 53
2019-04-05 12:00:00 10.5 10 Sudoeste 30 Sur 0 932.3 -0.2 53
2019-04-05 11:00:00 9.7 12 Sur 27 Sudoeste 0 932.1 -0.1 57
2019-04-05 10:00:00 8.4 11 Sur 20 Sudoeste 0 932.3 0.3 69
2019-04-05 09:00:00 8.1 8 Sur 19 Sudoeste 0 932.5 0.7 62
2019-04-05 08:00:00 7.7 12 Sur 32 Sudoeste 0 932.2 0.4 60
2019-04-05 07:00:00 8.3 19 Sudoeste 33 Sudoeste 0 932 0.3 55
2019-04-05 06:00:00 8.4 12 Sudoeste 19 Sudoeste 0 931.8 -0.1 47
2019-04-05 05:00:00 7.8 8 Sur 14 Sur 0 931.8 -0.2 48
2019-04-05 04:00:00 8.1 5 Norte 14 Norte 0 931.7 -0.8 48
2019-04-05 03:00:00 7.7 7 Norte 12 Nordeste 0 931.9 -1.1 51
2019-04-05 02:00:00 8.2 3 Este 10 Nordeste 0 932 -1.2 40
2019-04-05 01:00:00 8.3 6 Nordeste 13 Sudeste 0 932.5 -0.9 45
2019-04-05 00:00:00 9.2 6 Sur 13 Sudeste 0 933 0 42
2019-04-04 23:00:00 10.5 11 Sur 19 Sudoeste 0 933.2 0.3 29
2019-04-04 22:00:00 10.8 11 Sur 22 Sudoeste 0 933.4 0.5 30
2019-04-04 21:00:00 11.4 13 Sudoeste 25 Sudoeste 0 933 -0.2 26
2019-04-04 20:00:00 13.2 12 Sudoeste 22 Sudoeste 0 932.9 -1.2 26
2019-04-04 19:00:00 13.8 4 Sudoeste 13 Sudoeste 0 932.9 -2.1 24
2019-04-04 18:00:00 14.6 5 Sur 26 Oeste 0 933.2 -2.5 24
2019-04-04 17:00:00 14 8 Oeste 26 Oeste 0 934.1 -2.1 26
2019-04-04 16:00:00 13 12 Oeste 31 Oeste 0 935 -2.1 26
2019-04-04 15:00:00 12 13 Oeste 26 Noroeste 0 935.7 -1.9 28
2019-04-04 14:00:00 10.7 9 Sudoeste 30 Oeste 0 936.2 -1.6 36
2019-04-04 13:00:00 9.2 8 Oeste 26 Sudoeste 0 937.1 -0.8 39
2019-04-04 12:00:00 7.5 11 Oeste 25 Oeste 0 937.6 -0.1 46
2019-04-04 11:00:00 5.1 12 Oeste 20 Oeste 0 937.8 0.7 56
2019-04-04 10:00:00 2.5 4 Oeste 16 Noroeste 0 937.9 1.1 75
2019-04-04 09:00:00 0.4 3 Norte 6 Noroeste 0 937.7 1.5 90
2019-04-04 08:00:00 -1.2 2 Sur 6 Sur 0 937.1 0.7 91
2019-04-04 07:00:00 -1 3 Sur 10 Nordeste 0 936.8 0.3 91
2019-04-04 06:00:00 -0.3 9 Sur 12 Sur 0 936.2 -1 91
2019-04-04 05:00:00 0 5 Nordeste 8 Sudoeste 0 936.4 -1.1 90
2019-04-04 04:00:00 0.4 6 Sur 12 Sur 0 936.5 -1.4 89
2019-04-04 03:00:00 1.2 3 Sur 13 Sur 0 937.2 -0.7 85
2019-04-04 02:00:00 2.1 6 Sur 10 Sur 0 937.5 -0.7 83
2019-04-04 01:00:00 3.2 5 Sur 12 Sudoeste 0 937.9 0.1 78
2019-04-04 00:00:00 4.2 8 Sudoeste 12 Sur 0 937.9 0.4 73
2019-04-03 23:00:00 5.1 6 Noroeste 9 Oeste 0 938.2 1.4 70
2019-04-03 22:00:00 5.5 4 Oeste 13 Nordeste 0 937.8 1.3 69
2019-04-03 21:00:00 5.7 2 Sur 15 Nordeste 0 937.5 1.5 74
2019-04-03 20:00:00 5.9 12 Este 36 Nordeste 0 936.8 0.6 73
2019-04-03 19:00:00 8.2 20 Nordeste 36 Nordeste 0 936.5 -0.3 67
2019-04-03 18:00:00 8.3 21 Nordeste 31 Nordeste 0 936 -1.5 68
2019-04-03 17:00:00 8.3 15 Nordeste 24 Nordeste 0 936.2 -1.6 71
2019-04-03 16:00:00 7.9 15 Nordeste 25 Nordeste 0 936.8 -1.6 73
2019-04-03 15:00:00 8.3 8 Nordeste 16 Nordeste 0 937.5 -1.6 75
2019-04-03 14:00:00 9.3 4 Sudoeste 10 Sudoeste 0 937.8 -1.7 76
2019-04-03 13:00:00 9.2 9 Nordeste 14 Nordeste 0 938.4 -1.7 78
2019-04-03 12:00:00 9.5 0 Calma 6 Sudoeste 0 939.1 -1.2 81
2019-04-03 11:00:00 8.2 3 Sudoeste 8 Sur 0 939.5 -0.7 92
2019-04-03 10:00:00 7.3 3 Sudoeste 7 Sudoeste 0 940.1 -0.5 93
2019-04-03 09:00:00 7 3 Sudoeste 9 Noroeste 0 940.3 -0.6 93
2019-04-03 08:00:00 6.9 2 Noroeste 7 Sur 0 940.2 -1.3 93
2019-04-03 07:00:00 7.1 3 Sudoeste 6 Sudoeste 0.2 940.6 -1.5 92
2019-04-03 06:00:00 7.4 0 Calma 6 Sur 0 940.9 -2 92
2019-04-03 05:00:00 7.3 2 Sur 5 Noroeste 0 941.5 -2.1 92
2019-04-03 04:00:00 7.3 3 Oeste 5 Noroeste 0 942.1 -2.1 91
2019-04-03 03:00:00 7.2 3 Oeste 5 Sudoeste 0 942.9 -1.6 90
2019-04-03 02:00:00 8.3 3 Nordeste 6 Nordeste 0 943.6 -1.3 90
2019-04-03 01:00:00 8.9 2 Noroeste 13 Oeste 0.2 944.2 0.1 90
2019-04-03 00:00:00 9.3 3 Sudeste 6 Sur 0.2 944.5 -0.3 88
2019-04-02 23:00:00 9.6 5 Sur 23 Sudeste 0 944.9 0.6 88
2019-04-02 22:00:00 10.1 8 Sur 23 Oeste 2 944.1 -0.4 85
2019-04-02 21:00:00 12.5 9 Oeste 19 Oeste 0 944.8 -0.1 65
2019-04-02 20:00:00 14.7 0 Calma 11 Sur 0 944.3 -0.7 59
2019-04-02 19:00:00 16.1 6 Sudoeste 11 Sur 0 944.5 -1.3 54
2019-04-02 18:00:00 15 3 Oeste 23 Nordeste 0.2 944.9 -0.7 60
2019-04-02 17:00:00 13.6 19 Nordeste 36 Nordeste 1 945 -1.9 59
2019-04-02 16:00:00 13.8 19 Norte 36 Norte 1.2 945.8 -1.9 65
2019-04-02 15:00:00 17.2 8 Sur 14 Sudeste 0 945.6 -2.6 50
2019-04-02 14:00:00 14.3 6 Sudoeste 12 Sudoeste 0 946.9 -1.1 62
2019-04-02 13:00:00 13.3 2 Sudeste 8 Oeste 0 947.7 -0.2 71
2019-04-02 12:00:00 11.3 2 Noroeste 9 Oeste 0 948.2 0.8 81
2019-04-02 11:00:00 9.9 4 Noroeste 8 Sudoeste 0 948 1 90
2019-04-02 10:00:00 8.9 4 Oeste 7 Sudoeste 0 947.9 1 92
2019-04-02 09:00:00 8.1 3 Sudoeste 7 Sur 0 947.4 0.7 92
2019-04-02 08:00:00 8.3 3 Este 5 Este 0 947 0.1 92
2019-04-02 07:00:00 8.5 0 Calma 5 Oeste 0 946.9 -0.1 92
2019-04-02 06:00:00 9 2 Noroeste 5 Oeste 0 946.7 -0.6 92
2019-04-02 05:00:00 9.3 3 Sudoeste 6 Sur 0 946.9 -0.5 92
2019-04-02 04:00:00 9.6 4 Oeste 8 Este 0 947 -0.5 92
2019-04-02 03:00:00 9.8 0 Calma 9 Sur 0 947.3 -0.2 91
2019-04-02 02:00:00 9.8 8 Sur 10 Sur 0 947.4 0.1 91
2019-04-02 01:00:00 10.1 4 Sudoeste 7 Oeste 0 947.5 0.5 90
2019-04-02 00:00:00 10.6 3 Oeste 6 Nordeste 0 947.5 1.2 89
2019-04-01 23:00:00 11.1 4 Nordeste 7 Nordeste 0 947.3 1.3 88
2019-04-01 22:00:00 11.3 4 Nordeste 8 Nordeste 0.2 947 1.1 88
2019-04-01 21:00:00 11.7 3 Nordeste 7 Este 0 946.3 0.4 87
2019-04-01 20:00:00 12 0 Calma 11 Nordeste 0 946 0.4 85
2019-04-01 19:00:00 12 3 Norte 6 Nordeste 2 945.9 0.2 83
2019-04-01 18:00:00 12.5 3 Sur 19 Este 0 945.9 0 77
2019-04-01 17:00:00 12.7 10 Nordeste 18 Nordeste 1.2 945.6 -0.9 82
2019-04-01 16:00:00 13.5 12 Nordeste 21 Nordeste 0 945.7 -1.4 67
2019-04-01 15:00:00 14.7 5 Norte 13 Norte 0.2 945.9 -1.5 60
2019-04-01 14:00:00 14.7 6 Noroeste 12 Norte 0 946.5 -0.8 66
2019-04-01 13:00:00 12.6 4 Oeste 9 Noroeste 0 947.1 0.1 75
2019-04-01 12:00:00 9.9 3 Noroeste 8 Noroeste 0 947.4 0.7 83
2019-04-01 11:00:00 8.6 2 Norte 7 Este 0 947.3 0.9 86
2019-04-01 10:00:00 7.4 3 Oeste 9 Nordeste 0 947 0.9 88
2019-04-01 09:00:00 7 6 Nordeste 10 Nordeste 0 946.7 0.7 89
2019-04-01 08:00:00 6.9 4 Este 8 Este 0 946.4 0.2 89
2019-04-01 07:00:00 7 3 Este 5 Nordeste 0 946.1 -0.3 89
2019-04-01 06:00:00 7.1 4 Nordeste 6 Nordeste 0 946 -0.7 90
2019-04-01 05:00:00 7.1 0 Calma 4 Sudoeste 0.2 946.2 -0.8 90
2019-04-01 04:00:00 6.9 3 Oeste 4 Sudoeste 0 946.4 -0.7 90
2019-04-01 03:00:00 7.2 0 Calma 2 Oeste 0 946.7 -0.4 89
2019-04-01 02:00:00 7.2 0 Calma 3 Sudoeste 0.4 947 -0.3 89
2019-04-01 01:00:00 7.3 2 Sudoeste 5 Sudoeste 0.4 947.1 0.2 89
2019-04-01 00:00:00 7.5 3 Noroeste 7 Nordeste 0 947.1 0.4 87
2019-03-31 23:00:00 7.3 2 Este 10 Nordeste 0 947.3 0.7 88
2019-03-31 22:00:00 7.3 6 Nordeste 10 Nordeste 0.4 946.9 0.3 89
2019-03-31 21:00:00 7.3 8 Nordeste 14 Nordeste 1.4 946.7 0.2 87
2019-03-31 20:00:00 7.8 8 Nordeste 14 Nordeste 1.4 946.6 0 85
2019-03-31 19:00:00 8.6 7 Nordeste 16 Nordeste 1.2 946.6 -0.3 83
2019-03-31 18:00:00 9.1 7 Nordeste 17 Nordeste 0.8 946.5 -0.9 81
2019-03-31 17:00:00 9.3 14 Nordeste 24 Nordeste 0.4 946.6 -0.9 76
2019-03-31 16:00:00 9.7 14 Nordeste 23 Nordeste 0 946.9 -1 73
2019-03-31 15:00:00 10 17 Nordeste 26 Nordeste 0 947.4 -0.8 72
2019-03-31 14:00:00 10.6 16 Nordeste 24 Nordeste 0 947.5 -0.9 59
2019-03-31 13:00:00 11.1 6 Norte 12 Norte 0 947.9 -0.2 55
2019-03-31 12:00:00 9.5 6 Norte 9 Norte 0 948.2 0.2 58
2019-03-31 11:00:00 7.8 5 Oeste 9 Sur 0 948.4 0.7 64
2019-03-31 10:00:00 6 2 Sudoeste 10 Sur 0 948.1 0.1 69
2019-03-31 09:00:00 3.7 7 Sur 11 Sur 0 948 -0.2 75
2019-03-31 08:00:00 4.4 5 Sudeste 10 Sur 0 947.7 -1 70
2019-03-31 07:00:00 4.7 4 Norte 13 Sur 0 948 -1.4 66
2019-03-31 06:00:00 4.2 6 Sur 12 Sur 0 948.2 -1.4 66
2019-03-31 05:00:00 4.5 3 Sur 8 Sur 0 948.7 -1.2 62
2019-03-31 03:00:00 7.2 4 Norte 8 Sudeste 0 949.6 -0.9 52
2019-03-31 01:00:00 7.6 4 Noroeste 7 Nordeste 0 949.9 -0.6 49
2019-03-31 00:00:00 9.2 3 Sudeste 9 Nordeste 0 950.1 0.1 45
2019-03-30 23:00:00 10.7 5 Sudeste 10 Este 0 950.5 1.3 40
2019-03-30 22:00:00 11.6 5 Noroeste 18 Sudeste 0 950.5 2 35
2019-03-30 21:00:00 12.7 4 Sudeste 18 Nordeste 0 950 1.7 31
2019-03-30 20:00:00 14.3 13 Nordeste 23 Nordeste 0 949.2 0.5 27
2019-03-30 19:00:00 16.5 19 Nordeste 34 Nordeste 0 948.5 -0.9 22
2019-03-30 18:00:00 17.6 22 Nordeste 33 Nordeste 0 948.3 -1.8 21
2019-03-30 17:00:00 18.3 20 Nordeste 35 Nordeste 0 948.7 -2.3 21
2019-03-30 16:00:00 18.5 18 Nordeste 32 Nordeste 0 949.4 -2.5 22
2019-03-30 15:00:00 18.8 14 Norte 30 Nordeste 0 950.1 -2.9 22
2019-03-30 14:00:00 18.6 6 Este -- -- 0 951 -2.8 23
2019-03-30 13:00:00 16.8 7 Noroeste 14 Este 0 951.9 -2.5 27
2019-03-30 12:00:00 14.7 5 Nordeste 12 Norte 0 953 -1.6 30
2019-03-30 11:00:00 11.5 5 Norte 12 Noroeste 0 953.8 -0.8 40
2019-03-30 10:00:00 8.5 3 Sudeste 7 Este 0 954.4 -0.1 51
2019-03-30 09:00:00 4.6 3 Oeste 6 Este 0 954.6 0.4 64
2019-03-30 08:00:00 2.6 2 Este 4 Nordeste 0 954.6 0.5 70
2019-03-30 07:00:00 1.9 0 Calma 8 Sur 0 954.5 0.2 71
2019-03-30 06:00:00 2.9 0 Calma 4 Oeste 0 954.2 -0.4 70
2019-03-30 05:00:00 3.7 4 Sudoeste 6 Oeste 0 954.1 -0.6 67
2019-03-30 04:00:00 4.6 0 Calma 5 Noroeste 0 954.3 -0.6 63
2019-03-30 03:00:00 6.3 2 Noroeste 8 Norte 0 954.6 -0.2 58
2019-03-30 02:00:00 7.7 4 Sudoeste 7 Oeste 0 954.7 0.2 54
2019-03-30 01:00:00 8.7 5 Este 13 Sudeste 0 954.9 0.9 50
2019-03-30 00:00:00 9.9 3 Este 10 Norte 0 954.8 1.3 46
2019-03-29 23:00:00 11.1 9 Nordeste 19 Sudeste 0 954.5 1.5 42
2019-03-29 22:00:00 12.3 6 Sudeste 20 Este 0 954 1.5 38
2019-03-29 21:00:00 13.2 10 Este 24 Este 0 953.5 1.6 36
2019-03-29 20:00:00 14.8 13 Nordeste 34 Nordeste 0 953 0.9 35
2019-03-29 19:00:00 16.4 21 Este 40 Este 0 952.5 0.2 31
2019-03-29 18:00:00 19.3 17 Este 33 Este 0 951.9 -1.7 22
2019-03-29 17:00:00 20.6 6 Este 57 Nordeste 0 952.1 -2.4 19
2019-03-29 16:00:00 20.6 -- -- -- -- 0 952.3 -3 20
2019-03-29 15:00:00 20.9 7 Sudeste 39 Sudeste 0 953.6 -2.7 12
2019-03-29 14:00:00 20.1 11 Este 25 Nordeste 0 954.5 -2.8 15
2019-03-29 13:00:00 17.8 11 Nordeste 23 Nordeste 0 955.3 -2.5 21
2019-03-29 12:00:00 15.2 7 Norte 14 Nordeste 0 956.3 -1.7 26
2019-03-29 11:00:00 11.6 5 Nordeste 14 Nordeste 0 957.3 -0.7 37
2019-03-29 10:00:00 7.7 2 Oeste 6 Oeste 0 957.8 0 51
2019-03-29 09:00:00 3.7 3 Oeste 5 Nordeste 0 958 0.5 65
2019-03-29 08:00:00 1.8 4 Nordeste 7 Nordeste 0 958 0.8 72
2019-03-29 07:00:00 1.1 2 Sur 4 Oeste 0 957.8 0.5 72
2019-03-29 06:00:00 1.8 0 Calma 6 Sudoeste 0 957.5 0.3 71
2019-03-29 05:00:00 2.9 3 Nordeste 8 Norte 0 957.2 -0.1 68
2019-03-29 04:00:00 3.4 3 Sudeste 7 Nordeste 0 957.3 0.2 64
2019-03-29 03:00:00 4.1 3 Norte 7 Sudoeste 0 957.2 0.3 63
2019-03-29 02:00:00 5.5 0 Calma 6 Oeste 0 957.3 0.7 56
2019-03-29 01:00:00 6.3 2 Norte 7 Oeste 0 957.1 0.6 55
2019-03-29 00:00:00 8 0 Calma 8 Este 0 956.9 0.8 50
2019-03-28 23:00:00 9 5 Sur 15 Sur 0 956.6 1 46
2019-03-28 22:00:00 11.4 7 Sur 12 Sudeste 0 956.5 1.3 38
2019-03-28 21:00:00 12.5 5 Sudeste 15 Este 0 956.1 1.1 35
2019-03-28 20:00:00 14.3 11 Este 26 Nordeste 0 955.6 0.5 32
2019-03-28 19:00:00 16.4 18 Nordeste 31 Nordeste 0 955.2 -0.5 28
2019-03-28 18:00:00 17.8 17 Nordeste 30 Norte 0 955 -1.3 25
2019-03-28 17:00:00 18.9 9 Norte 27 Norte 0 955.1 -2.1 19
2019-03-28 16:00:00 18.5 12 Nordeste 27 Nordeste 0 955.7 -2.2 24
2019-03-28 15:00:00 18.5 12 Nordeste 21 Nordeste 0 956.3 -2.6 21
2019-03-28 14:00:00 17.3 6 Este 15 Nordeste 0 957.2 -2.3 20
2019-03-28 13:00:00 15.7 5 Sudeste 13 Este 0 957.9 -2 21
2019-03-28 12:00:00 12.8 4 Este 13 Norte 0 958.9 -1.2 29
2019-03-28 11:00:00 9.7 4 Norte 9 Norte 0 959.5 -0.5 32
2019-03-28 10:00:00 6.6 3 Oeste 9 Nordeste 0 959.9 0.4 41
2019-03-28 09:00:00 2.6 3 Sur 7 Sur 0 960.1 0.9 55
2019-03-28 08:00:00 0.2 0 Calma -- -- 0.3 960 1.1 57
2019-03-28 07:00:00 -0.5 0 Calma 4 Sudeste 0 959.5 0.9 61
2019-03-28 06:00:00 0.2 0 Calma 6 Sudoeste 0 959.2 0.8 56
2019-03-28 05:00:00 1.4 3 Norte 4 Sudeste 0 958.9 0.9 52
2019-03-28 04:00:00 2.2 0 Calma 6 Este 0 958.6 0.9 50
2019-03-28 03:00:00 3.4 3 Norte 9 Sur 0 958.4 1.4 44
2019-03-28 02:00:00 4.4 8 Sudoeste 18 Sur 0 958 1.4 44
2019-03-28 01:00:00 5.5 5 Sudeste 13 Sur 0 957.7 1.6 37
2019-03-28 00:00:00 7 5 Norte 10 Norte 0 957 1.6 34
2019-03-27 23:00:00 8.2 4 Sudoeste 8 Oeste 0 956.6 2.1 31
2019-03-27 22:00:00 10.8 3 Sudeste 19 Nordeste 0 956.1 2.2 25
2019-03-27 21:00:00 13 10 Nordeste 22 Este 0 955.4 1.9 22
2019-03-27 20:00:00 14.5 13 Nordeste 31 Nordeste 0 954.5 1 18
2019-03-27 19:00:00 17.2 18 Nordeste 28 Nordeste 0 953.9 -0.1 13
2019-03-27 18:00:00 18.5 17 Nordeste 27 Nordeste 0 953.5 -0.9 12
2019-03-27 17:00:00 19.4 14 Nordeste 26 Este 0 953.5 -1.5 13
2019-03-27 16:00:00 19.4 -- -- -- -- 0 954 -1.9 12
2019-03-27 15:00:00 18.3 10 Nordeste 23 Norte 0 954.4 -2.1 14
2019-03-27 14:00:00 17.3 8 Nordeste 19 Norte 0 955 -1.8 17
2019-03-27 13:00:00 14.7 4 Nordeste 11 Norte 0 955.9 -1.1 21
2019-03-27 12:00:00 12.4 5 Sudoeste 11 Sur 0 956.5 -0.7 26
2019-03-27 11:00:00 9.1 3 Oeste 10 Nordeste 0 956.8 -0.4 31
2019-03-27 10:00:00 5.6 5 Nordeste 8 Este 0 957 0.8 41
2019-03-27 09:00:00 1.4 3 Sudoeste 6 Sudoeste 0 957.2 1.2 54
2019-03-27 08:00:00 -0.7 0 Calma 5 Sudeste 0 957.2 1.4 58
2019-03-27 07:00:00 -1.3 4 Sudeste 5 Sudeste 0 956.2 0.7 60
2019-03-27 06:00:00 -0.6 5 Norte 6 Nordeste 0 956 0.6 57
2019-03-27 05:00:00 -0.2 5 Sudoeste 6 Sudoeste 0 955.8 0.6 56
2019-03-27 04:00:00 0.9 3 Oeste 5 Nordeste 0 955.5 0.8 50
2019-03-27 03:00:00 2 5 Norte 6 Sur 0 955.4 1 45
2019-03-27 02:00:00 2.7 3 Este 13 Sur 0 955.2 1.2 43
2019-03-27 01:00:00 3.5 9 Sur 14 Sur 0 954.7 1.6 40
2019-03-27 00:00:00 5.5 5 Este 14 Sur 0 954.4 1.8 32
2019-03-26 23:00:00 7.6 12 Sur 17 Sur 0 954 2.3 26
2019-03-26 22:00:00 9.6 2 Sur 10 Sur 0 953.1 1.8 25
2019-03-26 21:00:00 11.7 3 Norte 23 Este 0 952.6 1.6 20
2019-03-26 20:00:00 13.8 12 Este 26 Este 0 951.7 0.4 15
2019-03-26 19:00:00 16.9 18 Nordeste 27 Nordeste 0 951.3 -0.3 12
2019-03-26 18:00:00 18.8 14 Norte 28 Norte 0 951 -1 10
2019-03-26 17:00:00 18.8 14 Nordeste 30 Este 0 951.3 -1.5 11
2019-03-26 16:00:00 18.3 18 Nordeste 28 Nordeste 0 951.6 -2 13
2019-03-26 15:00:00 18 12 Nordeste 26 Norte 0 952 -2.4 18
2019-03-26 14:00:00 16.6 10 Norte 21 Norte 0 952.8 -2 23
2019-03-26 13:00:00 14.6 9 Nordeste 18 Nordeste 0 953.6 -1.5 28
2019-03-26 12:00:00 12.2 4 Nordeste 12 Nordeste 0 954.4 -0.8 35
2019-03-26 11:00:00 9 3 Noroeste 9 Nordeste 0 954.8 0.1 49
2019-03-26 10:00:00 5.4 6 Nordeste 10 Nordeste 0 955.1 1 60
2019-03-26 09:00:00 1.5 2 Noroeste 6 Oeste 0 955.2 1.6 75
2019-03-26 08:00:00 -0.4 0 Calma 5 Sudoeste 0 954.7 1.3 81
2019-03-26 07:00:00 -0.5 0 Calma 5 Sur 0 954.1 0.8 79
2019-03-26 06:00:00 0.5 3 Sudeste 9 Sudeste 0 953.6 0 75
2019-03-26 05:00:00 1.3 2 Oeste 6 Nordeste 0 953.4 -0.3 72
2019-03-26 04:00:00 1.9 4 Nordeste 11 Sur 0 953.3 -0.2 70
2019-03-26 03:00:00 2.7 0 Calma 17 Sudeste 0 953.6 0.2 67
2019-03-26 02:00:00 3.2 3 Sur 12 Sur 0 953.7 0.7 66
2019-03-26 01:00:00 4.7 4 Sur 8 Sur 0 953.5 1.1 59
2019-03-26 00:00:00 6.1 3 Sur 9 Oeste 0 953.4 1.7 53
2019-03-25 23:00:00 7.9 3 Noroeste 15 Nordeste 0 953 1.9 48
2019-03-25 22:00:00 9.1 10 Este 26 Nordeste 0 952.4 1.7 45
2019-03-25 21:00:00 10.1 15 Este 24 Este 0 951.7 1.1 41
2019-03-25 20:00:00 11.4 19 Este 31 Nordeste 0 951.1 0.5 38
2019-03-25 19:00:00 14.1 21 Nordeste 35 Nordeste 0 950.7 -0.2 30
2019-03-25 18:00:00 16.1 22 Nordeste 37 Nordeste 0 950.6 -1.1 24
2019-03-25 17:00:00 17.7 21 Nordeste 33 Nordeste 0 950.6 -2.1 23
2019-03-25 16:00:00 18.6 16 Nordeste 30 Nordeste 0 950.9 -2.8 23
2019-03-25 15:00:00 18.7 12 Este 28 Nordeste 0 951.7 -2.8 23
2019-03-25 14:00:00 18.3 8 Nordeste 21 Nordeste 0 952.7 -2.4 26
2019-03-25 13:00:00 16.8 6 Este 19 Este 0 953.7 -1.7 29
2019-03-25 12:00:00 15.6 4 Este 12 Norte 0 954.5 -0.7 32
2019-03-25 11:00:00 12.6 5 Noroeste 10 Oeste 0 955.1 -0.1 42
2019-03-25 10:00:00 8.7 2 Noroeste 8 Oeste 0 955.4 0.5 51
2019-03-25 09:00:00 4.8 3 Noroeste 5 Nordeste 0 955.2 0.5 61
2019-03-25 08:00:00 2.4 0 Calma 6 Sur 0 955.2 0.7 68
2019-03-25 07:00:00 2.5 3 Norte 7 Norte 0 954.9 0.4 67
2019-03-25 06:00:00 3.4 3 Nordeste 6 Sur 0 954.7 0.1 63
2019-03-25 05:00:00 4.2 4 Sudoeste 10 Sur 0 954.5 -0.1 60
2019-03-25 04:00:00 5.7 3 Nordeste 6 Nordeste 0 954.5 0 54
2019-03-25 03:00:00 7.1 3 Este 18 Sur 0 954.6 0 50
2019-03-25 02:00:00 7.8 4 Norte 17 Sudeste 0 954.6 -0.1 49
2019-03-25 01:00:00 8.8 5 Sur 10 Sur 0 954.5 0.1 47
2019-03-25 00:00:00 11 6 Sudoeste 13 Sudoeste 0 954.6 0.7 40